createdAt,value
2019-01-29T00:00:53.970Z,94622.16
2019-01-29T00:03:25.525Z,94623.08
2019-01-29T00:05:56.598Z,94623.08
2019-01-29T00:08:27.739Z,94624.22
2019-01-29T00:10:59.083Z,94628.55
2019-01-29T00:13:30.225Z,94637.39
2019-01-29T00:16:02.448Z,94626.45
2019-01-29T00:18:34.582Z,94631.12
2019-01-29T00:21:05.668Z,94624.38
2019-01-29T00:23:37.062Z,94636.11
2019-01-29T00:26:08.344Z,94637.27
2019-01-29T00:28:39.467Z,94635.52
2019-01-29T00:31:10.620Z,94645.66
2019-01-29T00:33:41.985Z,94640.30
2019-01-29T00:36:12.996Z,94648.56
2019-01-29T00:38:44.205Z,94657.97
2019-01-29T00:41:15.353Z,94644.95
2019-01-29T00:43:46.572Z,94647.51
2019-01-29T00:46:17.602Z,94660.06
2019-01-29T00:48:48.654Z,94649.13
2019-01-29T00:51:19.749Z,94655.41
2019-01-29T00:53:50.834Z,94659.61
2019-01-29T00:56:21.977Z,94656.83
2019-01-29T00:58:54.107Z,94659.84
2019-01-29T01:01:25.316Z,94665.87
2019-01-29T01:03:56.368Z,94664.38
2019-01-29T01:06:27.437Z,94672.52
2019-01-29T01:08:58.542Z,94690.91
2019-01-29T01:11:29.775Z,94690.20
2019-01-29T01:14:01.909Z,94700.78
2019-01-29T01:16:33.254Z,94692.19
2019-01-29T01:19:04.483Z,94699.38
2019-01-29T01:21:35.668Z,94702.76
2019-01-29T01:24:06.835Z,94701.48
2019-01-29T01:26:37.983Z,94716.59
2019-01-29T01:29:09.036Z,94715.44
2019-01-29T01:31:40.115Z,94713.55
2019-01-29T01:34:11.120Z,94715.08
2019-01-29T01:36:42.282Z,94714.00
2019-01-29T01:39:13.463Z,94709.25
2019-01-29T01:41:46.307Z,94714.50
2019-01-29T01:44:17.361Z,94711.56
2019-01-29T01:46:48.426Z,94722.02
2019-01-29T01:49:19.544Z,94721.70
2019-01-29T01:51:50.698Z,94722.91
2019-01-29T01:54:21.820Z,94729.33
2019-01-29T01:56:52.883Z,94739.30
2019-01-29T01:59:23.855Z,94736.03
2019-01-29T02:01:54.950Z,94732.52
2019-01-29T02:04:26.060Z,94742.52
2019-01-29T02:06:57.131Z,94742.06
2019-01-29T02:09:28.476Z,94751.53
2019-01-29T02:11:59.796Z,94741.74
2019-01-29T02:14:30.989Z,94740.53
2019-01-29T02:17:02.264Z,94747.93
2019-01-29T02:19:33.467Z,94747.25
2019-01-29T02:22:05.134Z,94755.42
2019-01-29T02:24:36.301Z,94770.06
2019-01-29T02:27:07.400Z,94764.81
2019-01-29T02:29:38.528Z,94774.60
2019-01-29T02:32:09.619Z,94775.67
2019-01-29T02:34:40.783Z,94784.86
2019-01-29T02:37:11.978Z,94784.28
2019-01-29T02:39:42.973Z,94783.72
2019-01-29T02:42:14.062Z,94788.39
2019-01-29T02:44:46.266Z,94787.12
2019-01-29T02:47:17.296Z,94791.36
2019-01-29T02:49:48.576Z,94794.92
2019-01-29T02:52:19.760Z,94798.86
2019-01-29T02:54:50.853Z,94793.55
2019-01-29T02:57:21.995Z,94802.77
2019-01-29T02:59:53.039Z,94801.08
2019-01-29T03:02:24.189Z,94796.70
2019-01-29T03:04:55.315Z,94796.38
2019-01-29T03:07:26.464Z,94802.22
2019-01-29T03:09:58.839Z,94805.85
2019-01-29T03:12:30.252Z,94804.20
2019-01-29T03:15:01.284Z,94812.34
2019-01-29T03:17:32.415Z,94810.73
2019-01-29T03:20:04.587Z,94804.84
2019-01-29T03:22:35.801Z,94798.81
2019-01-29T03:25:08.096Z,94807.06
2019-01-29T03:27:39.627Z,94814.23
2019-01-29T03:30:13.231Z,94824.66
2019-01-29T03:32:44.598Z,94834.31
2019-01-29T03:35:15.858Z,94832.14
2019-01-29T03:37:47.089Z,94831.63
2019-01-29T03:40:21.178Z,94837.96
2019-01-29T03:42:52.336Z,94839.68
2019-01-29T03:45:24.484Z,94848.38
2019-01-29T03:47:56.720Z,94846.34
2019-01-29T03:50:29.211Z,94848.62
2019-01-29T03:53:00.508Z,94847.41
2019-01-29T03:55:31.714Z,94850.84
2019-01-29T03:58:02.878Z,94851.64
2019-01-29T04:00:34.012Z,94857.70
2019-01-29T04:03:05.353Z,94852.73
2019-01-29T04:05:36.419Z,94870.39
2019-01-29T04:08:07.655Z,94871.63
2019-01-29T04:10:38.765Z,94867.83
2019-01-29T04:13:09.926Z,94872.09
2019-01-29T04:15:41.043Z,94876.83
2019-01-29T04:18:12.177Z,94873.09
2019-01-29T04:20:43.340Z,94876.93
2019-01-29T04:23:14.506Z,94876.74
2019-01-29T04:25:45.656Z,94877.88
2019-01-29T04:28:16.734Z,94882.99
2019-01-29T04:30:47.880Z,94886.16
2019-01-29T04:33:18.970Z,94888.29
2019-01-29T04:35:50.025Z,94883.55
2019-01-29T04:38:21.190Z,94892.13
2019-01-29T04:40:52.221Z,94887.39
2019-01-29T04:43:24.407Z,94884.45
2019-01-29T04:45:55.574Z,94893.05
2019-01-29T04:48:26.833Z,94893.44
2019-01-29T04:50:57.996Z,94890.98
2019-01-29T04:53:29.219Z,94891.45
2019-01-29T04:56:01.229Z,94897.59
2019-01-29T04:58:32.312Z,94893.80
2019-01-29T05:01:03.448Z,94892.19
2019-01-29T05:03:34.514Z,94894.25
2019-01-29T05:06:05.866Z,94898.65
2019-01-29T05:08:36.961Z,94902.77
2019-01-29T05:11:08.017Z,94904.42
2019-01-29T05:13:39.357Z,94901.67
2019-01-29T05:16:10.523Z,94903.56
2019-01-29T05:18:41.842Z,94902.20
2019-01-29T05:21:13.055Z,94901.78
2019-01-29T05:23:44.339Z,94906.88
2019-01-29T05:26:15.520Z,94908.11
2019-01-29T05:28:46.806Z,94908.38
2019-01-29T05:31:17.970Z,94910.66
2019-01-29T05:33:49.173Z,94907.64
2019-01-29T05:36:20.246Z,94907.27
2019-01-29T05:38:51.341Z,94914.23
2019-01-29T05:41:22.476Z,94910.86
2019-01-29T05:43:53.503Z,94909.66
2019-01-29T05:46:25.283Z,94914.35
2019-01-29T05:48:56.585Z,94925.68
2019-01-29T05:51:27.645Z,94927.20
2019-01-29T05:53:58.706Z,94925.73
2019-01-29T05:56:29.791Z,94927.20
2019-01-29T05:59:00.885Z,94930.77
2019-01-29T06:01:32.097Z,94936.38
2019-01-29T06:04:03.243Z,94938.91
2019-01-29T06:06:34.255Z,94936.23
2019-01-29T06:09:08.608Z,94938.02
2019-01-29T06:11:39.729Z,94941.52
2019-01-29T06:14:10.947Z,94941.57
2019-01-29T06:16:42.109Z,94943.08
2019-01-29T06:19:13.390Z,94944.19
2019-01-29T06:21:44.732Z,94944.14
2019-01-29T06:24:24.858Z,94950.55
2019-01-29T06:26:48.754Z,94945.59
2019-01-29T06:29:20.010Z,94949.03
2019-01-29T06:31:51.246Z,94953.14
2019-01-29T06:34:22.446Z,94950.60
2019-01-29T06:36:54.749Z,94960.78
2019-01-29T06:39:25.842Z,94961.45
2019-01-29T06:41:57.262Z,94960.55
2019-01-29T06:44:28.340Z,94964.81
2019-01-29T06:46:59.446Z,94966.26
2019-01-29T06:49:30.524Z,94973.20
2019-01-29T06:52:01.761Z,94969.06
2019-01-29T06:54:34.293Z,94976.91
2019-01-29T06:57:05.758Z,94981.13
2019-01-29T06:59:36.959Z,94981.92
2019-01-29T07:02:08.396Z,94979.78
2019-01-29T07:04:39.629Z,94992.69
2019-01-29T07:07:10.808Z,94991.69
2019-01-29T07:09:42.046Z,94992.77
2019-01-29T07:12:13.131Z,94988.67
2019-01-29T07:14:44.305Z,94991.09
2019-01-29T07:17:28.951Z,94998.05
2019-01-29T07:20:02.790Z,94994.86
2019-01-29T07:22:34.013Z,94992.55
2019-01-29T07:25:07.179Z,95002.16
2019-01-29T07:27:38.315Z,95000.60
2019-01-29T07:30:12.512Z,95007.66
2019-01-29T07:32:43.592Z,95009.61
2019-01-29T07:35:14.821Z,95009.12
2019-01-29T07:37:45.888Z,95015.61
2019-01-29T07:40:17.059Z,95019.03
2019-01-29T07:42:48.230Z,95015.05
2019-01-29T07:45:19.491Z,95013.95
2019-01-29T07:47:50.641Z,95020.12
2019-01-29T07:50:21.833Z,95025.70
2019-01-29T07:52:53.097Z,95025.45
2019-01-29T07:55:24.326Z,95022.39
2019-01-29T07:57:55.420Z,95029.31
2019-01-29T08:00:26.606Z,95022.81
2019-01-29T08:02:57.790Z,95024.91
2019-01-29T08:05:28.940Z,95027.19
2019-01-29T08:07:59.984Z,95024.91
2019-01-29T08:10:31.051Z,95028.19
2019-01-29T08:13:02.079Z,95026.95
2019-01-29T08:15:33.226Z,95031.28
2019-01-29T08:18:04.556Z,95030.56
2019-01-29T08:20:35.764Z,95040.52
2019-01-29T08:23:07.115Z,95035.29
2019-01-29T08:25:38.284Z,95032.83
2019-01-29T08:28:09.441Z,95035.55
2019-01-29T08:30:40.675Z,95032.83
2019-01-29T08:33:11.878Z,95031.69
2019-01-29T08:35:43.125Z,95035.86
2019-01-29T08:38:14.195Z,95043.78
2019-01-29T08:40:45.220Z,95033.25
2019-01-29T08:43:16.309Z,95038.76
2019-01-29T08:45:47.523Z,95032.87
2019-01-29T08:48:18.773Z,95034.53
2019-01-29T08:50:49.930Z,95044.73
2019-01-29T08:53:21.068Z,95035.82
2019-01-29T08:55:52.279Z,95038.03
2019-01-29T08:58:27.143Z,95034.96
2019-01-29T09:00:56.159Z,95023.83
2019-01-29T09:03:27.325Z,95025.89
2019-01-29T09:05:58.489Z,95033.21
2019-01-29T09:08:29.548Z,95031.03
2019-01-29T09:11:00.778Z,95037.45
2019-01-29T09:13:31.932Z,95045.11
2019-01-29T09:16:03.187Z,95037.32
2019-01-29T09:18:34.333Z,95042.73
2019-01-29T09:21:05.737Z,95048.47
2019-01-29T09:23:37.018Z,95030.87
2019-01-29T09:26:08.252Z,95026.04
2019-01-29T09:28:39.391Z,95033.88
2019-01-29T09:31:10.530Z,95024.42
2019-01-29T09:33:41.592Z,95017.20
2019-01-29T09:36:12.853Z,95018.09
2019-01-29T09:38:44.021Z,95020.06
2019-01-29T09:41:15.116Z,95020.23
2019-01-29T09:43:46.338Z,95013.80
2019-01-29T09:46:17.507Z,95018.98
2019-01-29T09:48:48.746Z,95017.20
2019-01-29T09:51:19.865Z,95024.24
2019-01-29T09:53:50.869Z,95012.92
2019-01-29T09:56:21.853Z,95022.45
2019-01-29T09:58:52.926Z,95014.58
2019-01-29T10:01:24.004Z,95025.62
2019-01-29T10:03:54.968Z,95017.03
2019-01-29T10:06:26.110Z,95008.23
2019-01-29T10:08:57.160Z,95010.63
2019-01-29T10:11:28.632Z,95004.03
2019-01-29T10:13:59.830Z,95001.67
2019-01-29T10:16:31.039Z,94996.61
2019-01-29T10:19:02.111Z,94992.22
2019-01-29T10:21:33.249Z,94989.00
2019-01-29T10:24:04.749Z,94981.16
2019-01-29T10:26:35.917Z,94979.41
2019-01-29T10:29:07.015Z,94977.63
2019-01-29T10:31:38.232Z,94972.67
2019-01-29T10:34:09.309Z,94969.91
2019-01-29T10:36:40.475Z,94966.50
2019-01-29T10:39:11.532Z,94966.02
2019-01-29T10:41:42.686Z,94966.12
2019-01-29T10:44:13.810Z,94956.10
2019-01-29T10:46:44.966Z,94953.89
2019-01-29T10:49:16.013Z,94944.40
2019-01-29T10:51:47.757Z,94946.09
2019-01-29T10:54:18.958Z,94936.10
2019-01-29T10:56:50.100Z,94924.37
2019-01-29T10:59:21.212Z,94918.34
2019-01-29T11:01:52.368Z,94919.56
2019-01-29T11:04:23.413Z,94917.31
2019-01-29T11:06:54.717Z,94907.03
2019-01-29T11:09:25.857Z,94902.61
2019-01-29T11:11:56.965Z,94908.44
2019-01-29T11:14:28.792Z,94903.69
2019-01-29T11:17:00.054Z,94902.94
2019-01-29T11:19:31.204Z,94903.38
2019-01-29T11:22:02.330Z,94892.33
2019-01-29T11:24:33.473Z,94891.27
2019-01-29T11:27:05.007Z,94893.17
2019-01-29T11:29:36.145Z,94893.42
2019-01-29T11:32:07.267Z,94887.78
2019-01-29T11:34:38.246Z,94883.35
2019-01-29T11:37:09.326Z,94876.83
2019-01-29T11:39:40.510Z,94871.52
2019-01-29T11:42:11.653Z,94869.40
2019-01-29T11:44:42.789Z,94867.30
2019-01-29T11:47:13.947Z,94862.41
2019-01-29T11:49:45.086Z,94860.66
2019-01-29T11:52:16.250Z,94853.84
2019-01-29T11:54:47.307Z,94849.94
2019-01-29T11:57:18.695Z,94838.80
2019-01-29T11:59:49.894Z,94845.04
2019-01-29T12:02:28.329Z,94838.67
2019-01-29T12:04:53.877Z,94832.94
2019-01-29T12:07:25.085Z,94820.06
2019-01-29T12:09:56.678Z,94819.50
2019-01-29T12:12:27.968Z,94818.37
2019-01-29T12:14:59.025Z,94810.66
2019-01-29T12:17:30.188Z,94807.76
2019-01-29T12:20:01.190Z,94811.13
2019-01-29T12:22:32.356Z,94809.09
2019-01-29T12:25:03.867Z,94812.29
2019-01-29T12:27:35.068Z,94804.27
2019-01-29T12:30:10.465Z,94804.83
2019-01-29T12:32:41.553Z,94806.48
2019-01-29T12:35:12.700Z,94802.52
2019-01-29T12:37:43.876Z,94803.64
2019-01-29T12:40:15.192Z,94801.88
2019-01-29T12:42:46.415Z,94800.34
2019-01-29T12:45:18.457Z,94794.55
2019-01-29T12:47:49.861Z,94796.34
2019-01-29T12:50:22.655Z,94796.44
2019-01-29T12:53:19.173Z,94800.75
2019-01-29T12:55:50.330Z,94794.59
2019-01-29T12:58:21.412Z,94794.38
2019-01-29T13:00:56.831Z,94784.67
2019-01-29T13:03:28.016Z,94780.27
2019-01-29T13:05:59.190Z,94776.95
2019-01-29T13:08:30.330Z,94774.59
2019-01-29T13:11:01.561Z,94767.72
2019-01-29T13:13:32.696Z,94759.06
2019-01-29T13:16:03.822Z,94753.48
2019-01-29T13:18:34.910Z,94751.09
2019-01-29T13:21:06.062Z,94745.55
2019-01-29T13:23:37.270Z,94746.88
2019-01-29T13:26:08.439Z,94741.61
2019-01-29T13:28:39.634Z,94735.45
2019-01-29T13:31:10.707Z,94735.48
2019-01-29T13:33:41.883Z,94729.77
2019-01-29T13:36:13.008Z,94727.28
2019-01-29T13:38:44.109Z,94736.10
2019-01-29T13:41:15.234Z,94728.23
2019-01-29T13:43:46.372Z,94726.31
2019-01-29T13:46:17.601Z,94712.95
2019-01-29T13:48:48.747Z,94713.73
2019-01-29T13:51:19.889Z,94713.32
2019-01-29T13:53:51.032Z,94709.75
2019-01-29T13:56:22.200Z,94708.56
2019-01-29T13:58:53.270Z,94708.90
2019-01-29T14:01:24.325Z,94710.69
2019-01-29T14:03:55.457Z,94702.95
2019-01-29T14:06:26.524Z,94695.75
2019-01-29T14:08:57.772Z,94693.01
2019-01-29T14:11:28.900Z,94679.23
2019-01-29T14:14:00.943Z,94667.02
2019-01-29T14:16:32.123Z,94667.02
2019-01-29T14:19:03.301Z,94672.16
2019-01-29T14:21:34.455Z,94672.16
2019-01-29T14:24:05.787Z,94668.16
2019-01-29T14:26:36.894Z,94665.86
2019-01-29T14:29:07.967Z,94660.98
2019-01-29T14:31:39.103Z,94666.06
2019-01-29T14:34:10.359Z,94664.56
2019-01-29T14:36:41.489Z,94666.72
2019-01-29T14:39:22.689Z,94660.25
2019-01-29T14:41:53.671Z,94668.97
2019-01-29T14:44:34.537Z,94664.29
2019-01-29T14:47:05.679Z,94659.80
2019-01-29T14:49:36.751Z,94662.80
2019-01-29T14:54:50.138Z,94655.33
2019-01-29T14:57:21.124Z,94657.94
2019-01-29T14:59:52.230Z,94652.53
2019-01-29T15:02:23.359Z,94641.83
2019-01-29T15:04:54.530Z,94643.27
2019-01-29T15:07:30.488Z,94642.56
2019-01-29T15:09:58.468Z,94645.33
2019-01-29T15:12:29.524Z,94643.23
2019-01-29T15:15:01.726Z,94639.37
2019-01-29T15:17:38.412Z,94627.23
2019-01-29T15:20:10.959Z,94621.78
2019-01-29T15:22:43.448Z,94610.30
2019-01-29T15:25:14.678Z,94608.27
2019-01-29T15:27:45.908Z,94615.18
2019-01-29T15:30:20.375Z,94614.17
2019-01-29T15:32:51.495Z,94610.51
2019-01-29T15:35:22.787Z,94613.94
2019-01-29T15:37:54.709Z,94617.11
2019-01-29T15:40:25.969Z,94609.70
2019-01-29T15:42:57.293Z,94613.94
2019-01-29T15:45:28.480Z,94615.77
2019-01-29T15:47:59.704Z,94615.58
2019-01-29T15:50:31.296Z,94618.80
2019-01-29T15:53:02.888Z,94618.19
2019-01-29T15:55:34.063Z,94614.73
2019-01-29T15:58:07.012Z,94617.44
2019-01-29T16:00:38.737Z,94610.20
2019-01-29T16:03:09.871Z,94607.51
2019-01-29T16:05:41.257Z,94604.98
2019-01-29T16:08:12.767Z,94595.95
2019-01-29T16:10:44.201Z,94587.86
2019-01-29T16:13:15.333Z,94585.64
2019-01-29T16:15:46.530Z,94582.60
2019-01-29T16:18:17.690Z,94579.62
2019-01-29T16:20:48.892Z,94577.38
2019-01-29T16:23:19.956Z,94577.88
2019-01-29T16:25:51.091Z,94569.35
2019-01-29T16:28:22.268Z,94569.66
2019-01-29T16:30:53.445Z,94564.20
2019-01-29T16:33:24.593Z,94570.82
2019-01-29T16:35:55.663Z,94568.17
2019-01-29T16:38:26.722Z,94565.39
2019-01-29T16:41:00.491Z,94562.77
2019-01-29T16:43:30.820Z,94557.05
2019-01-29T16:46:01.935Z,94555.45
2019-01-29T16:48:34.240Z,94558.19
2019-01-29T16:51:05.397Z,94552.42
2019-01-29T16:53:37.491Z,94550.02
2019-01-29T16:56:10.542Z,94556.00
2019-01-29T16:58:41.660Z,94550.63
2019-01-29T17:01:31.313Z,94547.63
2019-01-29T17:04:02.786Z,94547.89
2019-01-29T17:06:33.798Z,94544.48
2019-01-29T17:09:09.402Z,94539.20
2019-01-29T17:11:40.492Z,94537.92
2019-01-29T17:14:11.570Z,94534.89
2019-01-29T17:16:43.747Z,94527.20
2019-01-29T17:19:14.808Z,94524.80
2019-01-29T17:21:45.947Z,94514.56
2019-01-29T17:24:17.029Z,94516.34
2019-01-29T17:26:48.108Z,94512.70
2019-01-29T17:29:20.455Z,94509.92
2019-01-29T17:31:51.541Z,94502.50
2019-01-29T17:34:22.691Z,94499.83
2019-01-29T17:36:53.961Z,94499.14
2019-01-29T17:39:25.092Z,94497.88
2019-01-29T17:41:56.443Z,94495.92
2019-01-29T17:44:27.615Z,94489.63
2019-01-29T17:46:58.724Z,94495.33
2019-01-29T17:49:29.782Z,94492.41
2019-01-29T17:52:00.958Z,94492.38
2019-01-29T17:54:32.009Z,94487.66
2019-01-29T17:57:03.109Z,94488.00
2019-01-29T17:59:34.103Z,94487.18
2019-01-29T18:02:05.980Z,94484.17
2019-01-29T18:04:37.042Z,94480.79
2019-01-29T18:07:08.187Z,94478.92
2019-01-29T18:09:39.326Z,94471.72
2019-01-29T18:12:10.794Z,94467.91
2019-01-29T18:14:42.056Z,94465.35
2019-01-29T18:17:13.180Z,94461.06
2019-01-29T18:19:44.355Z,94460.36
2019-01-29T18:22:15.453Z,94457.68
2019-01-29T18:24:46.446Z,94453.73
2019-01-29T18:27:17.850Z,94454.65
2019-01-29T18:29:48.966Z,94453.97
2019-01-29T18:32:20.164Z,94443.17
2019-01-29T18:34:51.158Z,94449.91
2019-01-29T18:37:22.247Z,94443.98
2019-01-29T18:39:53.332Z,94436.67
2019-01-29T18:42:25.499Z,94438.88
2019-01-29T18:44:56.579Z,94431.78
2019-01-29T18:47:27.758Z,94418.44
2019-01-29T18:49:58.822Z,94426.80
2019-01-29T18:52:29.912Z,94422.24
2019-01-29T18:55:00.984Z,94416.33
2019-01-29T18:57:32.158Z,94409.84
2019-01-29T19:00:03.251Z,94408.09
2019-01-29T19:02:35.339Z,94407.03
2019-01-29T19:05:07.589Z,94402.63
2019-01-29T19:07:38.828Z,94391.70
2019-01-29T19:10:11.896Z,94392.30
2019-01-29T19:12:43.080Z,94384.16
2019-01-29T19:15:17.736Z,94382.30
2019-01-29T19:17:48.989Z,94372.20
2019-01-29T19:20:22.013Z,94369.19
2019-01-29T19:22:53.169Z,94361.77
2019-01-29T19:25:24.332Z,94356.78
2019-01-29T19:27:55.566Z,94359.21
2019-01-29T19:30:29.132Z,94345.28
2019-01-29T19:33:00.247Z,94343.88
2019-01-29T19:35:31.325Z,94349.36
2019-01-29T19:38:02.424Z,94338.31
2019-01-29T19:40:33.570Z,94330.43
2019-01-29T19:43:04.910Z,94331.94
2019-01-29T19:45:36.218Z,94328.23
2019-01-29T19:48:08.395Z,94325.92
2019-01-29T19:50:39.629Z,94324.98
2019-01-29T19:53:10.724Z,94327.39
2019-01-29T19:55:42.349Z,94313.81
2019-01-29T19:58:13.566Z,94316.39
2019-01-29T20:00:44.774Z,94310.94
2019-01-29T20:03:16.030Z,94306.30
2019-01-29T20:05:47.162Z,94296.55
2019-01-29T20:08:18.329Z,94294.58
2019-01-29T20:10:49.500Z,94287.74
2019-01-29T20:13:20.675Z,94277.98
2019-01-29T20:15:51.842Z,94271.14
2019-01-29T20:18:24.068Z,94271.38
2019-01-29T20:20:55.454Z,94271.95
2019-01-29T20:23:26.556Z,94266.27
2019-01-29T20:25:57.612Z,94270.22
2019-01-29T20:28:28.712Z,94266.60
2019-01-29T20:30:59.964Z,94268.47
2019-01-29T20:33:31.391Z,94261.83
2019-01-29T20:36:02.595Z,94256.28
2019-01-29T20:38:35.260Z,94251.17
2019-01-29T20:41:06.640Z,94248.50
2019-01-29T20:43:37.900Z,94243.72
2019-01-29T20:46:09.039Z,94241.80
2019-01-29T20:48:40.199Z,94239.08
2019-01-29T20:51:11.276Z,94238.52
2019-01-29T20:53:42.489Z,94234.73
2019-01-29T20:56:13.649Z,94226.14
2019-01-29T20:58:52.468Z,94221.14
2019-01-29T21:01:17.583Z,94222.89
2019-01-29T21:03:48.739Z,94212.10
2019-01-29T21:06:19.879Z,94208.64
2019-01-29T21:08:51.001Z,94208.16
2019-01-29T21:11:22.201Z,94199.83
2019-01-29T21:13:53.286Z,94202.15
2019-01-29T21:16:24.437Z,94189.02
2019-01-29T21:18:55.453Z,94183.25
2019-01-29T21:21:26.598Z,94179.87
2019-01-29T21:23:57.805Z,94177.89
2019-01-29T21:26:28.884Z,94176.84
2019-01-29T21:29:03.228Z,94168.74
2019-01-29T21:31:32.764Z,94162.37
2019-01-29T21:34:03.909Z,94159.35
2019-01-29T21:36:34.901Z,94153.44
2019-01-29T21:39:09.396Z,94150.88
2019-01-29T21:41:40.545Z,94145.32
2019-01-29T21:44:11.722Z,94139.53
2019-01-29T21:46:42.740Z,94135.01
2019-01-29T21:49:14.085Z,94137.69
2019-01-29T21:51:45.376Z,94138.83
2019-01-29T21:54:16.511Z,94127.95
2019-01-29T21:56:49.815Z,94120.98
2019-01-29T21:59:22.185Z,94120.75
2019-01-29T22:01:53.266Z,94118.92
2019-01-29T22:04:24.362Z,94110.34
2019-01-29T22:06:55.625Z,94120.30
2019-01-29T22:09:27.701Z,94108.59
2019-01-29T22:11:58.930Z,94108.34
2019-01-29T22:14:30.086Z,94101.06
2019-01-29T22:17:01.304Z,94104.54
2019-01-29T22:19:32.560Z,94098.84
2019-01-29T22:22:03.694Z,94099.31
2019-01-29T22:24:34.847Z,94094.30
2019-01-29T22:27:05.849Z,94087.76
2019-01-29T22:29:36.880Z,94079.27
2019-01-29T22:32:08.430Z,94077.80
2019-01-29T22:34:41.234Z,94077.42
2019-01-29T22:37:12.404Z,94073.84
2019-01-29T22:39:43.621Z,94063.44
2019-01-29T22:42:14.868Z,94065.17
2019-01-29T22:44:46.003Z,94066.41
2019-01-29T22:47:17.172Z,94063.63
2019-01-29T22:49:48.745Z,94057.98
2019-01-29T22:52:19.915Z,94050.34
2019-01-29T22:54:51.372Z,94051.02
2019-01-29T22:57:22.621Z,94042.80
2019-01-29T22:59:53.926Z,94044.19
2019-01-29T23:02:25.337Z,94038.73
2019-01-29T23:04:56.595Z,94030.84
2019-01-29T23:07:34.096Z,94030.05
2019-01-29T23:10:10.454Z,94019.61
2019-01-29T23:12:41.628Z,94024.04
2019-01-29T23:15:14.848Z,94019.61
2019-01-29T23:17:46.019Z,94005.75
2019-01-29T23:20:17.627Z,94002.84
2019-01-29T23:22:49.701Z,94002.63
2019-01-29T23:25:21.112Z,93997.48
2019-01-29T23:27:52.337Z,93996.00
2019-01-29T23:30:23.654Z,93999.09
2019-01-29T23:32:54.667Z,93990.46
2019-01-29T23:35:25.817Z,93980.73
2019-01-29T23:37:56.966Z,93983.16
2019-01-29T23:40:28.114Z,93976.88
2019-01-29T23:42:59.092Z,93980.73
2019-01-29T23:45:30.346Z,93975.03
2019-01-29T23:48:01.342Z,93967.19
2019-01-29T23:50:32.958Z,93969.49
2019-01-29T23:53:04.213Z,93965.88
2019-01-29T23:55:35.308Z,93959.72
2019-01-29T23:58:06.552Z,93950.86
